KBBD - Brady/Curtis Fld, TX, US

Issued at 1120 UTC 16 Jul 2019
Updated at 1217 UTC 16 Jul 2019
Potential Impact None Slight Moderate High
Time1155Z 16/13Z 16/14Z 16/15Z 16/16Z 16/17Z 16/18Z 16/19Z 16/20Z 16/21Z 16/22Z 16/23Z 17/00Z 17/01Z>>
Type OBS PRVL PRVL PRVL PRVL PRVL PRVL PRVL PRVL PRVL PRVL PRVL PRVL PRVL
VIS 9 >6 >6 >6 >6 >6 >6 >6 >6 >6 >6 >6 >6 >6
CIG -- -- -- -- -- -- -- -- -- -- -- -- -- --
Cover CLR SKC SKC SKC SKC SKC SKC SKC SKC SKC SKC SKC SKC SKC
FltCat VFR VFR VFR VFR VFR VFR VFR VFR VFR VFR VFR VFR VFR VFR
WX -- -- -- -- -- -- -- -- -- -- -- -- -- --
WDir 170 170 170 170 170 170 170 170 170 170 170 170 150 150
WSpd 7 6 6 11 11 11 11 11 11 11 11 11 8 8
WGst -- -- -- 17 17 17 17 17 17 17 17 17 -- --
Raw TAF
KBBD 161120Z 1612/1712 17006KT P6SM SKC
  FM161500 17011G17KT P6SM SKC
  FM170000 15008KT P6SM SKC


Raw METAR
KBBD 161155Z AUTO 17007KT 9SM CLR 24/22 A3000 RMK AO2
KBBD 161135Z AUTO 17007KT 10SM CLR 24/22 A3000 RMK AO2
KBBD 161115Z AUTO 17006KT 10SM CLR 24/22 A3000 RMK AO2
KBBD 161055Z AUTO 17006KT 10SM CLR 24/22 A2999 RMK AO2
KBBD 161035Z AUTO 17004KT 10SM CLR 24/22 A2998 RMK AO2
KBBD 161015Z AUTO 17005KT 10SM CLR 24/22 A2997 RMK AO2
KBBD 160955Z AUTO 17004KT 10SM CLR 24/21 A2996 RMK AO2
KBBD 160935Z AUTO 17006KT 10SM CLR 24/21 A2996 RMK AO2

METAR Board
Radar Display
Forecast Discussion
For situational awareness. Not to be used for flight planning purposes.